Time;durP1;ratioP1;P1;durP2;ratioP2;P2;SDS_P1;SDS_P2;PMS_P1;PMS_P2;Temp;Humidity;BMP_temperature;BMP_pressure;BME280_temperature;BME280_humidity;BME280_pressure;Samples;Min_cycle;Max_cycle;Signal;HPM_P1;HPM_P2
2021/12/23 00:02:21;;;;;;;33.13;11.63;;;;;;;;;;5039914;28;20115;-78
2021/12/23 00:04:47;;;;;;;28.75;11.38;;;;;;;;;;5045174;28;20032;-79
2021/12/23 00:07:12;;;;;;;42.80;12.57;;;;;;;;;;5032515;28;20507;-78
2021/12/23 00:12:16;;;;;;;26.50;9.10;;;;;;;;;;5031046;28;20472;-78
2021/12/23 00:14:42;;;;;;;35.97;12.10;;;;;;;;;;5015737;28;20034;-78
2021/12/23 00:17:41;;;;;;;37.65;10.98;;;;;;;;;;5042865;28;20028;-78
2021/12/23 00:25:17;;;;;;;44.75;14.10;;;;;;;;;;5027414;28;20041;-78
2021/12/23 00:27:42;;;;;;;45.15;14.35;;;;;;;;;;5032988;28;20465;-78
2021/12/23 00:30:08;;;;;;;39.38;12.23;;;;;;;;;;5037428;28;20033;-79
2021/12/23 00:32:34;;;;;;;41.83;12.25;;;;;;;;;;5044726;28;20044;-78
2021/12/23 00:34:59;;;;;;;45.05;13.80;;;;;;;;;;5032352;28;20075;-78
2021/12/23 00:37:24;;;;;;;35.05;12.57;;;;;;;;;;5010282;28;20108;-78
2021/12/23 00:39:51;;;;;;;36.95;12.98;;;;;;;;;;5019406;28;20029;-79
2021/12/23 00:42:17;;;;;;;34.40;10.82;;;;;;;;;;5032906;28;20048;-78
2021/12/23 00:44:45;;;;;;;42.38;13.55;;;;;;;;;;5032511;28;20045;-78
2021/12/23 00:47:10;;;;;;;46.35;13.38;;;;;;;;;;5038840;28;20052;-79
2021/12/23 00:49:36;;;;;;;24.35;10.88;;;;;;;;;;5037260;28;20029;-78
2021/12/23 00:52:03;;;;;;;41.58;13.45;;;;;;;;;;5034954;28;20480;-78
2021/12/23 00:54:28;;;;;;;42.42;13.13;;;;;;;;;;5041397;28;20064;-78
2021/12/23 00:56:54;;;;;;;46.80;13.50;;;;;;;;;;5037516;28;20047;-78
2021/12/23 00:59:19;;;;;;;44.35;13.55;;;;;;;;;;5031914;28;20045;-80
2021/12/23 01:01:46;;;;;;;35.65;12.55;;;;;;;;;;5039331;28;20052;-78
2021/12/23 01:04:12;;;;;;;39.92;13.10;;;;;;;;;;5034295;28;20071;-78
2021/12/23 01:06:37;;;;;;;30.52;10.05;;;;;;;;;;5034480;28;20041;-78
2021/12/23 01:09:03;;;;;;;37.70;13.57;;;;;;;;;;5042227;28;20036;-78
2021/12/23 01:11:28;;;;;;;35.25;11.43;;;;;;;;;;5042869;28;20094;-78
2021/12/23 01:14:04;;;;;;;44.92;13.73;;;;;;;;;;5045083;28;20028;-78
2021/12/23 01:16:50;;;;;;;46.72;15.43;;;;;;;;;;5032348;28;20053;-79
2021/12/23 01:19:17;;;;;;;44.95;13.13;;;;;;;;;;5041656;28;20037;-78
2021/12/23 01:21:42;;;;;;;42.33;12.10;;;;;;;;;;5035469;28;20044;-78
2021/12/23 01:24:09;;;;;;;38.58;12.63;;;;;;;;;;5035549;28;20037;-78
2021/12/23 01:26:35;;;;;;;41.08;12.40;;;;;;;;;;5030022;28;20048;-78
2021/12/23 01:29:01;;;;;;;39.55;12.77;;;;;;;;;;5036236;28;20473;-78
2021/12/23 01:31:29;;;;;;;44.33;12.30;;;;;;;;;;5032163;28;20465;-78
2021/12/23 01:33:55;;;;;;;32.53;11.10;;;;;;;;;;5038484;28;20128;-78
2021/12/23 01:36:22;;;;;;;28.33;9.05;;;;;;;;;;5033515;28;20124;-78
2021/12/23 01:38:47;;;;;;;38.42;13.70;;;;;;;;;;5041717;28;20075;-79
2021/12/23 01:41:13;;;;;;;39.80;12.95;;;;;;;;;;5037365;28;20036;-78
2021/12/23 01:43:38;;;;;;;38.08;11.70;;;;;;;;;;5030253;28;20057;-78
2021/12/23 01:46:04;;;;;;;40.28;12.75;;;;;;;;;;5045441;28;20048;-78
2021/12/23 01:48:29;;;;;;;39.90;13.07;;;;;;;;;;5059804;28;20494;-78
2021/12/23 01:50:55;;;;;;;48.17;14.45;;;;;;;;;;5052433;28;20209;-78
2021/12/23 01:53:20;;;;;;;48.10;15.07;;;;;;;;;;5060677;28;20128;-78
2021/12/23 01:55:46;;;;;;;45.92;12.77;;;;;;;;;;5038902;28;20068;-78
2021/12/23 01:58:13;;;;;;;43.17;14.15;;;;;;;;;;5030345;28;20538;-78
2021/12/23 02:00:43;;;;;;;44.22;13.15;;;;;;;;;;5051685;28;20086;-78
2021/12/23 02:03:10;;;;;;;37.08;12.75;;;;;;;;;;5048726;28;20041;-78
2021/12/23 02:05:35;;;;;;;44.33;13.68;;;;;;;;;;5042522;28;20784;-78
2021/12/23 02:08:01;;;;;;;38.45;12.77;;;;;;;;;;5057003;28;20116;-78
2021/12/23 02:10:27;;;;;;;44.45;13.25;;;;;;;;;;5047330;28;20057;-78
2021/12/23 02:12:54;;;;;;;36.80;10.80;;;;;;;;;;5055091;28;20069;-78
2021/12/23 02:15:20;;;;;;;49.97;14.90;;;;;;;;;;5054862;28;20127;-78
2021/12/23 02:17:47;;;;;;;39.80;12.07;;;;;;;;;;5052556;28;20144;-78
2021/12/23 02:20:15;;;;;;;29.52;11.07;;;;;;;;;;5049941;28;20016;-78
2021/12/23 02:22:42;;;;;;;40.70;12.00;;;;;;;;;;5052296;28;20583;-78
2021/12/23 02:25:10;;;;;;;43.53;12.45;;;;;;;;;;5050578;28;20045;-78
2021/12/23 02:27:35;;;;;;;37.38;12.07;;;;;;;;;;5038908;28;20072;-78
2021/12/23 02:30:04;;;;;;;44.08;14.13;;;;;;;;;;5041563;28;20144;-78
2021/12/23 02:32:30;;;;;;;39.78;13.32;;;;;;;;;;5047977;28;20468;-78
2021/12/23 02:34:55;;;;;;;32.78;12.23;;;;;;;;;;5037971;28;20033;-78
2021/12/23 02:37:21;;;;;;;41.58;12.85;;;;;;;;;;5035284;28;20124;-78
2021/12/23 02:39:46;;;;;;;42.70;12.10;;;;;;;;;;5033606;28;20045;-78
2021/12/23 02:42:12;;;;;;;35.80;12.60;;;;;;;;;;5045520;28;20064;-77
2021/12/23 02:44:38;;;;;;;41.28;12.43;;;;;;;;;;5041701;28;20057;-78
2021/12/23 02:47:03;;;;;;;41.30;11.70;;;;;;;;;;5016443;28;20132;-78
2021/12/23 02:49:29;;;;;;;37.15;12.80;;;;;;;;;;5010560;28;20140;-78
2021/12/23 02:51:54;;;;;;;42.85;13.10;;;;;;;;;;5013289;28;20493;-80
2021/12/23 02:54:19;;;;;;;33.45;11.30;;;;;;;;;;5011378;28;20042;-78
2021/12/23 02:56:45;;;;;;;41.58;11.82;;;;;;;;;;5016117;28;20200;-78
2021/12/23 02:59:11;;;;;;;35.25;11.55;;;;;;;;;;5015764;28;20033;-78
2021/12/23 03:01:36;;;;;;;34.53;11.98;;;;;;;;;;5012168;28;20099;-77
2021/12/23 03:04:02;;;;;;;43.95;13.48;;;;;;;;;;5041819;28;20045;-78
2021/12/23 03:06:28;;;;;;;37.30;12.43;;;;;;;;;;5046139;28;20529;-78
2021/12/23 03:08:59;;;;;;;37.10;11.32;;;;;;;;;;5040879;28;20048;-78
2021/12/23 03:11:26;;;;;;;21.42;8.52;;;;;;;;;;5043906;28;20041;-79
2021/12/23 03:13:52;;;;;;;37.60;12.52;;;;;;;;;;5040663;28;20033;-78
2021/12/23 03:16:27;;;;;;;40.95;13.38;;;;;;;;;;5043627;28;20091;-78
2021/12/23 03:18:53;;;;;;;44.72;13.20;;;;;;;;;;5037266;28;20063;-78
2021/12/23 03:21:19;;;;;;;43.30;11.88;;;;;;;;;;5033409;28;20502;-78
2021/12/23 03:23:45;;;;;;;32.35;10.13;;;;;;;;;;5038429;28;20037;-78
2021/12/23 03:26:10;;;;;;;38.00;11.98;;;;;;;;;;5030314;28;20391;-78
2021/12/23 03:28:35;;;;;;;30.98;11.27;;;;;;;;;;5043551;28;20099;-78
2021/12/23 03:31:02;;;;;;;40.60;12.18;;;;;;;;;;5040826;28;20429;-80
2021/12/23 03:33:28;;;;;;;44.15;13.15;;;;;;;;;;5039763;28;20041;-78
2021/12/23 03:35:54;;;;;;;39.70;11.98;;;;;;;;;;5037734;28;20041;-78
2021/12/23 03:38:20;;;;;;;41.10;13.07;;;;;;;;;;5035975;28;20155;-78
2021/12/23 03:40:46;;;;;;;39.83;12.68;;;;;;;;;;5042208;28;20052;-78
2021/12/23 03:43:12;;;;;;;37.60;12.50;;;;;;;;;;5035480;28;20049;-78
2021/12/23 03:45:44;;;;;;;35.53;12.45;;;;;;;;;;5032787;28;20049;-78
2021/12/23 03:48:11;;;;;;;40.53;11.93;;;;;;;;;;5048878;28;20516;-78
2021/12/23 03:50:37;;;;;;;32.20;10.57;;;;;;;;;;5070992;28;20086;-78
2021/12/23 03:53:02;;;;;;;36.20;12.00;;;;;;;;;;5047425;28;20024;-78
2021/12/23 03:55:28;;;;;;;33.85;11.15;;;;;;;;;;5042742;28;20022;-78
2021/12/23 03:57:53;;;;;;;44.83;12.77;;;;;;;;;;5042961;28;20430;-78
2021/12/23 04:00:20;;;;;;;34.78;12.13;;;;;;;;;;5036775;28;20040;-78
2021/12/23 04:02:47;;;;;;;36.55;12.05;;;;;;;;;;5046284;28;20028;-78
2021/12/23 04:05:13;;;;;;;56.30;14.90;;;;;;;;;;5063841;28;20032;-78
2021/12/23 04:07:39;;;;;;;32.22;11.05;;;;;;;;;;5057054;28;20025;-78
2021/12/23 04:10:09;;;;;;;27.67;9.40;;;;;;;;;;5034049;28;20045;-78
2021/12/23 04:12:35;;;;;;;34.53;10.40;;;;;;;;;;5042433;28;20040;-79
2021/12/23 04:15:01;;;;;;;38.67;10.65;;;;;;;;;;5039712;28;20042;-79
2021/12/23 04:17:26;;;;;;;18.02;7.80;;;;;;;;;;5040333;28;20037;-78
2021/12/23 04:19:51;;;;;;;40.40;13.25;;;;;;;;;;5040174;28;20029;-78
2021/12/23 04:22:17;;;;;;;38.85;13.57;;;;;;;;;;5045815;28;20086;-78
2021/12/23 04:24:44;;;;;;;45.83;12.95;;;;;;;;;;5046946;28;20051;-78
2021/12/23 04:27:09;;;;;;;35.97;12.60;;;;;;;;;;5047345;28;20040;-78
2021/12/23 04:29:35;;;;;;;32.80;11.00;;;;;;;;;;5041604;28;20136;-78
2021/12/23 04:32:01;;;;;;;35.95;13.63;;;;;;;;;;5046565;28;20116;-77
2021/12/23 04:34:27;;;;;;;40.67;11.80;;;;;;;;;;5043166;28;20128;-78
2021/12/23 04:36:53;;;;;;;45.88;12.98;;;;;;;;;;5047032;28;20103;-78
2021/12/23 04:39:18;;;;;;;37.15;12.05;;;;;;;;;;5042665;28;20040;-78
2021/12/23 04:41:43;;;;;;;38.38;12.55;;;;;;;;;;5041460;28;20063;-79
2021/12/23 04:44:09;;;;;;;55.03;14.45;;;;;;;;;;5039418;28;20029;-78
2021/12/23 04:46:35;;;;;;;34.53;12.35;;;;;;;;;;5043288;28;20103;-78
2021/12/23 04:49:00;;;;;;;44.83;13.82;;;;;;;;;;5047103;28;20098;-78
2021/12/23 04:51:26;;;;;;;35.92;12.10;;;;;;;;;;5064631;28;20044;-77
2021/12/23 04:53:51;;;;;;;41.60;13.52;;;;;;;;;;5060573;28;20051;-78
2021/12/23 04:56:17;;;;;;;45.05;13.63;;;;;;;;;;5062972;28;20117;-78
2021/12/23 04:58:43;;;;;;;38.40;12.48;;;;;;;;;;5064215;28;20178;-78
2021/12/23 05:01:16;;;;;;;25.90;9.40;;;;;;;;;;5064595;28;20531;-78
2021/12/23 05:03:42;;;;;;;30.95;11.43;;;;;;;;;;5047880;28;20045;-79
2021/12/23 05:06:07;;;;;;;33.17;11.80;;;;;;;;;;5061052;28;20052;-78
2021/12/23 05:08:32;;;;;;;27.63;10.07;;;;;;;;;;5059744;28;20048;-78
2021/12/23 05:10:58;;;;;;;41.50;12.35;;;;;;;;;;5052250;28;20041;-78
2021/12/23 05:13:23;;;;;;;29.77;10.77;;;;;;;;;;5036776;28;20051;-78
2021/12/23 05:15:48;;;;;;;27.88;9.43;;;;;;;;;;5045615;28;20045;-78
2021/12/23 05:18:14;;;;;;;34.22;11.70;;;;;;;;;;5046819;28;20064;-78
2021/12/23 05:20:39;;;;;;;21.63;7.60;;;;;;;;;;5031111;28;20454;-78
2021/12/23 05:23:04;;;;;;;18.75;8.80;;;;;;;;;;5029037;28;20101;-78
2021/12/23 05:25:30;;;;;;;29.13;10.43;;;;;;;;;;5042459;28;20037;-77
2021/12/23 05:27:55;;;;;;;30.33;10.52;;;;;;;;;;5045946;28;20037;-78
2021/12/23 05:30:24;;;;;;;23.40;8.20;;;;;;;;;;5031565;28;20063;-78
2021/12/23 05:32:50;;;;;;;40.75;13.52;;;;;;;;;;5033331;28;20148;-78
2021/12/23 05:35:18;;;;;;;45.38;13.10;;;;;;;;;;5032719;28;20112;-78
2021/12/23 05:37:43;;;;;;;31.67;12.48;;;;;;;;;;5046493;28;20500;-78
2021/12/23 05:40:14;;;;;;;30.02;10.50;;;;;;;;;;5042963;28;20116;-78
2021/12/23 05:42:39;;;;;;;27.17;9.23;;;;;;;;;;5042130;28;20518;-78
2021/12/23 05:45:05;;;;;;;28.10;9.30;;;;;;;;;;5042734;28;20049;-77
2021/12/23 05:47:30;;;;;;;39.00;12.10;;;;;;;;;;5025319;28;20125;-77
2021/12/23 05:49:56;;;;;;;42.60;13.15;;;;;;;;;;5026029;28;20044;-77
2021/12/23 05:52:23;;;;;;;31.48;11.02;;;;;;;;;;5003900;28;20053;-77
2021/12/23 05:54:48;;;;;;;40.92;12.63;;;;;;;;;;4990847;28;20034;-77
2021/12/23 05:57:13;;;;;;;40.35;13.02;;;;;;;;;;5020516;28;20119;-78
2021/12/23 05:59:39;;;;;;;36.00;12.57;;;;;;;;;;5028049;28;21109;-77
2021/12/23 06:02:05;;;;;;;27.50;8.88;;;;;;;;;;5041889;28;20056;-78
2021/12/23 06:04:31;;;;;;;40.17;13.82;;;;;;;;;;5032275;28;20040;-77
2021/12/23 06:06:57;;;;;;;43.65;14.20;;;;;;;;;;5037550;28;20044;-77
2021/12/23 06:09:22;;;;;;;29.50;12.18;;;;;;;;;;5041817;28;20395;-77
2021/12/23 06:11:48;;;;;;;46.45;14.80;;;;;;;;;;5038332;28;20068;-77
2021/12/23 06:14:13;;;;;;;22.40;9.65;;;;;;;;;;5031334;28;20032;-77
2021/12/23 06:16:38;;;;;;;25.75;8.85;;;;;;;;;;5029961;28;20155;-77
2021/12/23 06:19:04;;;;;;;33.65;11.13;;;;;;;;;;5042938;28;20041;-76
2021/12/23 06:21:31;;;;;;;40.13;13.75;;;;;;;;;;5029714;28;20033;-77
2021/12/23 06:23:57;;;;;;;32.25;11.13;;;;;;;;;;5043607;28;20048;-77
2021/12/23 06:26:22;;;;;;;39.15;12.57;;;;;;;;;;5038593;28;20182;-77
2021/12/23 06:28:48;;;;;;;43.13;14.52;;;;;;;;;;5028042;28;20112;-77
2021/12/23 06:31:14;;;;;;;26.73;9.82;;;;;;;;;;5034587;28;20041;-77
2021/12/23 06:33:39;;;;;;;31.05;10.43;;;;;;;;;;5042035;28;20131;-78
2021/12/23 06:36:05;;;;;;;36.25;12.95;;;;;;;;;;5036319;28;20605;-77
2021/12/23 06:38:30;;;;;;;34.25;12.63;;;;;;;;;;5028893;28;20041;-77
2021/12/23 06:40:56;;;;;;;22.77;8.52;;;;;;;;;;5038849;28;20052;-76
2021/12/23 06:43:21;;;;;;;38.05;11.50;;;;;;;;;;5031908;28;20033;-77
2021/12/23 06:45:46;;;;;;;27.23;10.15;;;;;;;;;;5031437;28;20049;-77
2021/12/23 06:48:12;;;;;;;22.30;9.23;;;;;;;;;;5057933;28;20109;-77
2021/12/23 06:50:37;;;;;;;31.90;9.75;;;;;;;;;;5046830;28;20074;-78
2021/12/23 06:53:03;;;;;;;22.52;9.38;;;;;;;;;;5050337;28;20429;-78
2021/12/23 06:55:28;;;;;;;20.67;10.18;;;;;;;;;;5060856;28;20470;-77
2021/12/23 06:57:56;;;;;;;33.17;12.98;;;;;;;;;;5058499;28;20044;-77
2021/12/23 07:00:23;;;;;;;33.65;11.50;;;;;;;;;;5057441;28;20044;-77
2021/12/23 07:02:49;;;;;;;36.92;13.00;;;;;;;;;;5059636;28;20079;-77
2021/12/23 07:05:15;;;;;;;34.05;11.05;;;;;;;;;;5063460;28;20016;-76
2021/12/23 07:07:51;;;;;;;41.22;13.63;;;;;;;;;;5061866;28;20032;-77
2021/12/23 07:10:17;;;;;;;35.53;12.18;;;;;;;;;;5046778;28;20066;-77
2021/12/23 07:12:42;;;;;;;27.98;11.25;;;;;;;;;;5061327;28;20120;-76
2021/12/23 07:15:08;;;;;;;25.50;9.25;;;;;;;;;;5050065;28;20041;-77
2021/12/23 07:17:33;;;;;;;32.72;10.88;;;;;;;;;;5043488;28;20052;-76
2021/12/23 07:19:58;;;;;;;23.08;8.18;;;;;;;;;;5054198;28;20513;-77
2021/12/23 07:22:24;;;;;;;27.63;10.55;;;;;;;;;;5044086;28;20162;-77
2021/12/23 07:24:49;;;;;;;21.70;8.77;;;;;;;;;;5055572;28;20044;-77
2021/12/23 07:27:14;;;;;;;21.98;9.77;;;;;;;;;;5047439;28;20128;-77
2021/12/23 07:29:40;;;;;;;34.53;11.77;;;;;;;;;;5030706;28;20046;-77
2021/12/23 07:32:06;;;;;;;23.98;10.15;;;;;;;;;;5027995;28;20029;-77
2021/12/23 07:34:32;;;;;;;30.33;9.98;;;;;;;;;;5031056;28;20075;-77
2021/12/23 07:36:57;;;;;;;22.77;8.75;;;;;;;;;;5045585;28;20118;-76
2021/12/23 07:39:23;;;;;;;29.92;10.43;;;;;;;;;;5041373;28;20044;-75
2021/12/23 07:41:48;;;;;;;27.08;11.18;;;;;;;;;;5036195;28;20037;-75
2021/12/23 07:44:20;;;;;;;32.20;10.38;;;;;;;;;;5027271;28;20065;-78
2021/12/23 07:46:47;;;;;;;36.28;12.98;;;;;;;;;;5036552;28;21387;-77
2021/12/23 07:49:12;;;;;;;36.42;11.60;;;;;;;;;;5034083;28;20033;-78
2021/12/23 07:51:38;;;;;;;35.13;13.35;;;;;;;;;;5043243;28;20045;-73
2021/12/23 07:54:04;;;;;;;35.40;11.80;;;;;;;;;;5053997;28;20040;-79
2021/12/23 07:56:29;;;;;;;38.17;13.50;;;;;;;;;;5057805;28;20055;-79
2021/12/23 07:58:54;;;;;;;38.38;11.88;;;;;;;;;;5057078;28;20021;-79
2021/12/23 08:01:20;;;;;;;35.70;10.40;;;;;;;;;;5043887;28;20036;-77
2021/12/23 08:03:45;;;;;;;35.78;11.68;;;;;;;;;;5044400;28;20556;-78
2021/12/23 08:06:11;;;;;;;30.65;10.90;;;;;;;;;;5049180;28;20040;-79
2021/12/23 08:08:36;;;;;;;30.60;11.20;;;;;;;;;;5051953;28;20040;-80
2021/12/23 08:11:02;;;;;;;25.17;8.95;;;;;;;;;;5051564;28;20060;-80
2021/12/23 08:13:29;;;;;;;29.75;10.50;;;;;;;;;;5053385;28;20418;-80
2021/12/23 08:15:54;;;;;;;34.17;12.20;;;;;;;;;;5036648;28;20043;-80
2021/12/23 08:18:20;;;;;;;37.08;10.85;;;;;;;;;;5037807;28;20041;-79
2021/12/23 08:20:45;;;;;;;36.78;13.70;;;;;;;;;;5039917;28;20423;-80
2021/12/23 08:23:11;;;;;;;23.88;9.90;;;;;;;;;;5030963;28;20513;-80
2021/12/23 08:25:36;;;;;;;31.90;12.73;;;;;;;;;;5043110;28;20064;-80
2021/12/23 08:28:02;;;;;;;38.88;12.02;;;;;;;;;;5043772;28;20124;-80
2021/12/23 08:30:27;;;;;;;36.83;13.63;;;;;;;;;;5043803;28;20044;-80
2021/12/23 08:32:53;;;;;;;31.60;11.77;;;;;;;;;;5036541;28;20037;-79
2021/12/23 08:35:18;;;;;;;27.17;10.82;;;;;;;;;;5036322;28;20040;-80
2021/12/23 08:37:46;;;;;;;33.00;11.10;;;;;;;;;;5045424;28;20108;-80
2021/12/23 08:40:19;;;;;;;33.65;11.88;;;;;;;;;;5031397;28;20042;-79
2021/12/23 08:42:44;;;;;;;40.65;13.23;;;;;;;;;;5041575;28;20055;-79
2021/12/23 08:45:10;;;;;;;42.03;13.80;;;;;;;;;;5049324;28;22396;-79
2021/12/23 08:47:36;;;;;;;57.20;17.58;;;;;;;;;;5053294;28;20048;-79
2021/12/23 08:50:04;;;;;;;48.53;13.40;;;;;;;;;;5051804;28;20036;-79
2021/12/23 08:52:30;;;;;;;45.67;16.55;;;;;;;;;;5060697;28;20052;-75
2021/12/23 08:54:55;;;;;;;54.20;19.33;;;;;;;;;;5063214;28;20434;-80
2021/12/23 08:57:20;;;;;;;41.72;14.93;;;;;;;;;;5061987;28;20048;-80
2021/12/23 08:59:46;;;;;;;37.65;14.10;;;;;;;;;;5048495;28;20127;-80
2021/12/23 09:02:11;;;;;;;38.58;14.20;;;;;;;;;;5061163;28;20535;-80
2021/12/23 09:04:38;;;;;;;35.05;13.05;;;;;;;;;;5058587;28;20856;-81
2021/12/23 09:07:04;;;;;;;35.13;13.40;;;;;;;;;;5049458;28;20036;-81
2021/12/23 09:09:32;;;;;;;29.83;11.48;;;;;;;;;;5059971;28;20576;-81
2021/12/23 09:11:58;;;;;;;32.42;12.57;;;;;;;;;;5058492;28;20064;-80
2021/12/23 09:14:23;;;;;;;33.30;13.25;;;;;;;;;;5059694;28;20071;-80
2021/12/23 09:16:49;;;;;;;34.40;12.63;;;;;;;;;;5051477;28;20032;-80
2021/12/23 09:19:14;;;;;;;30.30;10.15;;;;;;;;;;5056989;28;20114;-76
2021/12/23 09:21:40;;;;;;;38.85;13.38;;;;;;;;;;5043435;28;20167;-77
2021/12/23 09:24:06;;;;;;;36.00;12.18;;;;;;;;;;5038123;28;20041;-75
2021/12/23 09:26:36;;;;;;;35.05;13.07;;;;;;;;;;5040704;28;20056;-75
2021/12/23 09:34:34;;;;;;;38.28;13.27;;;;;;;;;;5054762;28;20566;-73
2021/12/23 09:36:59;;;;;;;32.38;12.00;;;;;;;;;;5042592;28;20131;-74
2021/12/23 09:39:27;;;;;;;35.13;12.95;;;;;;;;;;5032218;28;20041;-71
2021/12/23 09:41:55;;;;;;;26.83;9.93;;;;;;;;;;5030710;28;20127;-74
2021/12/23 09:44:20;;;;;;;33.03;11.93;;;;;;;;;;5032210;28;20099;-75
2021/12/23 09:46:46;;;;;;;32.88;12.63;;;;;;;;;;5032608;28;20603;-72
2021/12/23 09:49:11;;;;;;;24.85;9.80;;;;;;;;;;5039028;28;20053;-74
2021/12/23 09:51:37;;;;;;;33.63;12.57;;;;;;;;;;5024404;28;20042;-72
2021/12/23 09:54:06;;;;;;;32.38;12.48;;;;;;;;;;5036328;28;20753;-73
2021/12/23 09:56:33;;;;;;;32.88;12.80;;;;;;;;;;5036333;28;20084;-74
2021/12/23 09:59:00;;;;;;;34.45;12.25;;;;;;;;;;5042141;28;20037;-76
2021/12/23 10:01:27;;;;;;;33.13;13.18;;;;;;;;;;5054868;28;20054;-73
2021/12/23 10:03:53;;;;;;;24.10;8.07;;;;;;;;;;5051976;28;20514;-76
2021/12/23 10:06:18;;;;;;;31.58;12.20;;;;;;;;;;5053295;28;20052;-71
2021/12/23 10:08:44;;;;;;;35.53;13.30;;;;;;;;;;5054018;28;20041;-74
2021/12/23 10:38:16;;;;;;;33.30;12.48;;;;;;;;;;5052761;28;20086;-80
2021/12/23 10:40:45;;;;;;;35.45;13.10;;;;;;;;;;5049701;28;20055;-74
2021/12/23 10:43:21;;;;;;;34.78;15.02;;;;;;;;;;5048689;28;20036;-74
2021/12/23 10:45:55;;;;;;;27.13;11.75;;;;;;;;;;5052226;28;20052;-74
2021/12/23 10:48:23;;;;;;;35.95;13.52;;;;;;;;;;5024899;28;20041;-74
2021/12/23 10:50:52;;;;;;;33.53;13.07;;;;;;;;;;4996967;28;20049;-74
2021/12/23 10:53:45;;;;;;;31.40;13.48;;;;;;;;;;5015668;28;20036;-75
2021/12/23 10:59:26;;;;;;;31.83;12.52;;;;;;;;;;5013453;28;20831;-74
2021/12/23 11:02:09;;;;;;;26.23;11.23;;;;;;;;;;4988480;28;20021;-73
2021/12/23 11:04:52;;;;;;;;;;;;;;;;;;4991993;28;20553;-74
2021/12/23 11:07:24;;;;;;;23.08;10.30;;;;;;;;;;5032027;28;19921;-74
2021/12/23 11:37:49;;;;;;;33.70;14.25;;;;;;;;;;5022557;28;20051;-73
2021/12/23 11:43:13;;;;;;;40.05;12.52;;;;;;;;;;5019671;28;20033;-74
2021/12/23 11:45:38;;;;;;;39.28;13.73;;;;;;;;;;5012966;28;20045;-73
2021/12/23 11:48:07;;;;;;;31.63;11.60;;;;;;;;;;5042828;28;20040;-73
2021/12/23 11:50:41;;;;;;;33.13;12.07;;;;;;;;;;5041155;28;20534;-73
2021/12/23 11:53:08;;;;;;;42.22;15.05;;;;;;;;;;5041858;28;20143;-74
2021/12/23 11:55:36;;;;;;;40.50;15.10;;;;;;;;;;5036552;28;20033;-75
2021/12/23 11:58:02;;;;;;;36.65;12.88;;;;;;;;;;5043208;28;20045;-72
2021/12/23 12:00:42;;;;;;;34.13;13.70;;;;;;;;;;5039404;28;20037;-74
2021/12/23 12:03:09;;;;;;;33.33;12.60;;;;;;;;;;5051505;28;20033;-75
2021/12/23 12:05:35;;;;;;;31.20;12.98;;;;;;;;;;5059732;28;20136;-74
2021/12/23 12:08:08;;;;;;;37.15;14.00;;;;;;;;;;5053217;28;20052;-74
2021/12/23 12:10:34;;;;;;;38.25;13.65;;;;;;;;;;5050377;28;20553;-73
2021/12/23 12:13:04;;;;;;;30.30;11.65;;;;;;;;;;5030440;28;20108;-76
2021/12/23 12:15:38;;;;;;;35.83;12.80;;;;;;;;;;5044410;28;20048;-74
2021/12/23 12:18:06;;;;;;;32.60;13.18;;;;;;;;;;5046088;28;20513;-74
2021/12/23 12:20:38;;;;;;;41.03;13.35;;;;;;;;;;5051187;28;20738;-76
2021/12/23 12:23:03;;;;;;;37.65;13.52;;;;;;;;;;5047103;28;20024;-76
2021/12/23 12:25:28;;;;;;;32.17;12.82;;;;;;;;;;5027608;28;20037;-76
2021/12/23 12:27:57;;;;;;;42.17;14.48;;;;;;;;;;5008749;28;20406;-73
2021/12/23 12:30:44;;;;;;;37.72;14.43;;;;;;;;;;5049295;28;20459;-73
2021/12/23 12:33:12;;;;;;;46.33;17.58;;;;;;;;;;5048747;28;20068;-73
2021/12/23 12:35:39;;;;;;;45.15;18.02;;;;;;;;;;5064459;28;20044;-73
2021/12/23 12:38:12;;;;;;;38.35;13.98;;;;;;;;;;5045672;28;20033;-73
2021/12/23 12:40:57;;;;;;;36.47;13.20;;;;;;;;;;5060432;28;20043;-73
2021/12/23 12:43:41;;;;;;;38.55;14.68;;;;;;;;;;5061203;28;20834;-74
2021/12/23 12:46:07;;;;;;;30.50;11.10;;;;;;;;;;5046300;28;20530;-81
2021/12/23 12:48:54;;;;;;;30.60;12.00;;;;;;;;;;5030200;28;20041;-80
2021/12/23 12:51:21;;;;;;;37.78;13.73;;;;;;;;;;5006044;28;20045;-79
2021/12/23 12:54:09;;;;;;;41.28;14.70;;;;;;;;;;5016742;28;20103;-76
2021/12/23 12:56:42;;;;;;;38.42;13.85;;;;;;;;;;5029290;28;20072;-75
2021/12/23 12:59:08;;;;;;;38.33;13.63;;;;;;;;;;5029580;28;20072;-73
2021/12/23 13:01:42;;;;;;;52.75;19.33;;;;;;;;;;5013524;28;20512;-74
2021/12/23 13:04:24;;;;;;;41.13;15.65;;;;;;;;;;5015252;28;20064;-75
2021/12/23 13:06:52;;;;;;;32.72;12.63;;;;;;;;;;5017632;28;20052;-75
2021/12/23 13:09:26;;;;;;;35.58;14.35;;;;;;;;;;5012927;28;20099;-75
2021/12/23 13:11:54;;;;;;;42.25;14.02;;;;;;;;;;5017007;28;20132;-76
2021/12/23 13:14:22;;;;;;;52.83;19.77;;;;;;;;;;5021585;28;20061;-74
2021/12/23 13:16:58;;;;;;;49.15;15.77;;;;;;;;;;5012569;28;20027;-75
2021/12/23 13:19:34;;;;;;;49.70;17.02;;;;;;;;;;5009189;28;20708;-74
2021/12/23 13:22:04;;;;;;;42.13;15.73;;;;;;;;;;5017958;28;20082;-79
2021/12/23 13:24:30;;;;;;;51.97;16.52;;;;;;;;;;5017145;28;20115;-75
2021/12/23 13:26:58;;;;;;;45.97;15.70;;;;;;;;;;5012645;28;20583;-76
2021/12/23 13:29:28;;;;;;;45.15;15.80;;;;;;;;;;5010581;28;20092;-72
2021/12/23 13:31:55;;;;;;;40.92;14.93;;;;;;;;;;4993183;28;20032;-74
2021/12/23 13:34:26;;;;;;;45.22;15.40;;;;;;;;;;5020369;28;20037;-75
2021/12/23 13:36:55;;;;;;;55.85;15.30;;;;;;;;;;4998196;28;20121;-76
2021/12/23 13:39:28;;;;;;;41.50;14.13;;;;;;;;;;5017789;28;20040;-73
2021/12/23 13:42:02;;;;;;;41.70;15.10;;;;;;;;;;5016582;28;20506;-73
2021/12/23 13:44:50;;;;;;;40.47;15.02;;;;;;;;;;5010894;28;20037;-74
2021/12/23 13:47:18;;;;;;;46.22;14.25;;;;;;;;;;5021309;28;20103;-77
2021/12/23 13:49:46;;;;;;;43.00;14.80;;;;;;;;;;5032260;28;20021;-76
2021/12/23 13:52:39;;;;;;;50.97;15.02;;;;;;;;;;5045307;28;20047;-71
2021/12/23 13:55:11;;;;;;;46.47;16.50;;;;;;;;;;5050879;28;20028;-75
2021/12/23 13:57:51;;;;;;;42.80;14.13;;;;;;;;;;5055924;28;20098;-73
2021/12/23 14:00:17;;;;;;;52.45;14.95;;;;;;;;;;5041343;28;20446;-72
2021/12/23 14:02:43;;;;;;;49.13;15.65;;;;;;;;;;5027472;28;20033;-74
2021/12/23 14:05:11;;;;;;;46.30;15.18;;;;;;;;;;5043380;28;20040;-73
2021/12/23 14:07:48;;;;;;;42.30;14.52;;;;;;;;;;5060615;28;20032;-73
2021/12/23 14:10:20;;;;;;;35.80;13.32;;;;;;;;;;5052273;28;20044;-74
2021/12/23 14:12:57;;;;;;;47.92;16.35;;;;;;;;;;5050850;28;20045;-74
2021/12/23 14:15:26;;;;;;;47.65;16.13;;;;;;;;;;5058182;28;20072;-72
2021/12/23 14:18:05;;;;;;;43.72;15.13;;;;;;;;;;5055547;28;20082;-75
2021/12/23 14:23:22;;;;;;;51.85;15.57;;;;;;;;;;5047693;28;20102;-71
2021/12/23 14:25:52;;;;;;;49.25;15.40;;;;;;;;;;5048036;28;20640;-74
2021/12/23 14:28:27;;;;;;;54.45;16.30;;;;;;;;;;5061070;28;20060;-73
2021/12/23 14:31:29;;;;;;;41.70;14.43;;;;;;;;;;5043299;28;20517;-72
2021/12/23 14:33:58;;;;;;;46.08;14.25;;;;;;;;;;5049425;28;20202;-73
2021/12/23 14:36:30;;;;;;;46.60;15.57;;;;;;;;;;5044288;28;20044;-72
2021/12/23 14:39:00;;;;;;;51.00;15.80;;;;;;;;;;5052264;28;20123;-73
2021/12/23 14:41:35;;;;;;;55.50;15.00;;;;;;;;;;5057516;28;20529;-71
2021/12/23 14:44:33;;;;;;;48.53;15.10;;;;;;;;;;5055251;28;20024;-72
2021/12/23 14:47:13;;;;;;;44.63;14.63;;;;;;;;;;5033038;28;20057;-73
2021/12/23 14:52:21;;;;;;;48.13;15.13;;;;;;;;;;5033880;28;20584;-74
2021/12/23 14:54:47;;;;;;;40.72;14.38;;;;;;;;;;5037730;28;20037;-73
2021/12/23 14:57:16;;;;;;;47.85;14.88;;;;;;;;;;5035241;28;20045;-73
2021/12/23 14:59:51;;;;;;;46.80;16.02;;;;;;;;;;5028032;28;20033;-75
2021/12/23 15:02:22;;;;;;;48.45;15.98;;;;;;;;;;5028576;28;20020;-75
2021/12/23 15:05:12;;;;;;;45.80;15.40;;;;;;;;;;5038500;28;20414;-74
2021/12/23 15:07:56;;;;;;;46.40;14.90;;;;;;;;;;5023633;28;20497;-74
2021/12/23 15:10:25;;;;;;;46.75;14.52;;;;;;;;;;5012761;28;20163;-77
2021/12/23 15:12:51;;;;;;;45.95;14.70;;;;;;;;;;5029701;28;20065;-74
2021/12/23 15:15:16;;;;;;;37.42;12.88;;;;;;;;;;5028034;28;20128;-74
2021/12/23 15:17:50;;;;;;;45.72;15.15;;;;;;;;;;5028722;28;20043;-74
2021/12/23 15:20:19;;;;;;;42.17;13.68;;;;;;;;;;5009492;28;20025;-75
2021/12/23 15:22:44;;;;;;;45.33;15.07;;;;;;;;;;5007646;28;20087;-74
2021/12/23 15:25:12;;;;;;;44.92;14.27;;;;;;;;;;5022644;28;20538;-74
2021/12/23 15:27:41;;;;;;;45.65;14.50;;;;;;;;;;4993333;28;20037;-75
2021/12/23 15:30:29;;;;;;;40.47;13.95;;;;;;;;;;4993570;28;20131;-74
2021/12/23 15:32:55;;;;;;;41.60;13.88;;;;;;;;;;5006663;28;20044;-74
2021/12/23 15:35:23;;;;;;;45.72;15.05;;;;;;;;;;5010643;28;20038;-74
2021/12/23 15:37:53;;;;;;;48.15;14.27;;;;;;;;;;5045066;28;20036;-75
2021/12/23 15:40:28;;;;;;;46.42;15.38;;;;;;;;;;5037017;28;20711;-74
2021/12/23 15:43:00;;;;;;;49.97;14.43;;;;;;;;;;5034401;28;20751;-74
2021/12/23 15:45:27;;;;;;;46.97;14.07;;;;;;;;;;5041548;28;20037;-74